sensor_id;sensor_type;location;lat;lon;timestamp;P1;durP1;ratioP1;P2;durP2;ratioP2
55114;SDS011;41010;53.252;5.786;2023-05-10T00:00:11;2.17;;;1.10;;
55114;SDS011;41010;53.252;5.786;2023-05-10T00:02:38;1.40;;;1.05;;
55114;SDS011;41010;53.252;5.786;2023-05-10T00:05:07;1.35;;;1.00;;
55114;SDS011;41010;53.252;5.786;2023-05-10T00:07:34;1.58;;;1.08;;
55114;SDS011;41010;53.252;5.786;2023-05-10T00:10:02;4.32;;;1.13;;
55114;SDS011;41010;53.252;5.786;2023-05-10T00:12:29;1.30;;;1.10;;
55114;SDS011;41010;53.252;5.786;2023-05-10T00:14:56;1.58;;;1.15;;
55114;SDS011;41010;53.252;5.786;2023-05-10T00:17:23;1.55;;;1.30;;
55114;SDS011;41010;53.252;5.786;2023-05-10T00:19:50;2.10;;;1.60;;
55114;SDS011;41010;53.252;5.786;2023-05-10T00:22:19;2.30;;;1.90;;
55114;SDS011;41010;53.252;5.786;2023-05-10T00:24:46;5.13;;;2.28;;
55114;SDS011;41010;53.252;5.786;2023-05-10T00:27:14;2.83;;;2.40;;
55114;SDS011;41010;53.252;5.786;2023-05-10T00:29:41;3.10;;;2.67;;
55114;SDS011;41010;53.252;5.786;2023-05-10T00:32:08;3.38;;;2.95;;
55114;SDS011;41010;53.252;5.786;2023-05-10T00:34:35;4.85;;;3.63;;
55114;SDS011;41010;53.252;5.786;2023-05-10T00:37:03;5.57;;;3.70;;
55114;SDS011;41010;53.252;5.786;2023-05-10T00:39:32;4.90;;;3.50;;
55114;SDS011;41010;53.252;5.786;2023-05-10T00:41:59;4.82;;;3.53;;
55114;SDS011;41010;53.252;5.786;2023-05-10T00:44:26;4.30;;;3.35;;
55114;SDS011;41010;53.252;5.786;2023-05-10T00:46:54;5.20;;;4.03;;
55114;SDS011;41010;53.252;5.786;2023-05-10T00:49:21;4.47;;;3.45;;
55114;SDS011;41010;53.252;5.786;2023-05-10T00:51:48;5.15;;;3.70;;
55114;SDS011;41010;53.252;5.786;2023-05-10T00:54:16;6.85;;;3.88;;
55114;SDS011;41010;53.252;5.786;2023-05-10T00:56:44;6.63;;;4.28;;
55114;SDS011;41010;53.252;5.786;2023-05-10T00:59:14;7.70;;;4.53;;
55114;SDS011;41010;53.252;5.786;2023-05-10T01:01:42;8.77;;;5.60;;
55114;SDS011;41010;53.252;5.786;2023-05-10T01:04:10;11.15;;;6.22;;
55114;SDS011;41010;53.252;5.786;2023-05-10T01:06:38;14.27;;;6.35;;
55114;SDS011;41010;53.252;5.786;2023-05-10T01:09:05;14.48;;;6.32;;
55114;SDS011;41010;53.252;5.786;2023-05-10T01:11:33;15.68;;;6.47;;
55114;SDS011;41010;53.252;5.786;2023-05-10T01:14:01;15.05;;;5.53;;
55114;SDS011;41010;53.252;5.786;2023-05-10T01:16:29;15.93;;;5.47;;
55114;SDS011;41010;53.252;5.786;2023-05-10T01:18:56;13.40;;;5.20;;
55114;SDS011;41010;53.252;5.786;2023-05-10T01:21:31;13.85;;;5.60;;
55114;SDS011;41010;53.252;5.786;2023-05-10T01:24:20;12.60;;;5.28;;
55114;SDS011;41010;53.252;5.786;2023-05-10T01:27:02;12.00;;;5.63;;
55114;SDS011;41010;53.252;5.786;2023-05-10T01:29:41;12.02;;;4.93;;
55114;SDS011;41010;53.252;5.786;2023-05-10T01:32:19;9.95;;;5.55;;
55114;SDS011;41010;53.252;5.786;2023-05-10T01:34:48;9.27;;;4.78;;
55114;SDS011;41010;53.252;5.786;2023-05-10T01:37:20;9.02;;;4.97;;
55114;SDS011;41010;53.252;5.786;2023-05-10T01:39:48;5.45;;;4.18;;
55114;SDS011;41010;53.252;5.786;2023-05-10T01:42:17;3.88;;;2.95;;
55114;SDS011;41010;53.252;5.786;2023-05-10T01:44:49;2.83;;;2.28;;
55114;SDS011;41010;53.252;5.786;2023-05-10T01:47:20;2.63;;;2.08;;
55114;SDS011;41010;53.252;5.786;2023-05-10T01:49:53;1.70;;;1.35;;
55114;SDS011;41010;53.252;5.786;2023-05-10T01:52:22;1.60;;;1.40;;
55114;SDS011;41010;53.252;5.786;2023-05-10T01:54:54;1.75;;;1.20;;
55114;SDS011;41010;53.252;5.786;2023-05-10T01:57:22;1.20;;;1.00;;
55114;SDS011;41010;53.252;5.786;2023-05-10T01:59:50;1.05;;;0.90;;
55114;SDS011;41010;53.252;5.786;2023-05-10T02:02:20;1.25;;;0.90;;
55114;SDS011;41010;53.252;5.786;2023-05-10T02:04:47;1.30;;;0.90;;
55114;SDS011;41010;53.252;5.786;2023-05-10T02:07:16;1.55;;;1.10;;
55114;SDS011;41010;53.252;5.786;2023-05-10T02:09:44;1.50;;;1.10;;
55114;SDS011;41010;53.252;5.786;2023-05-10T02:12:13;1.25;;;1.15;;
55114;SDS011;41010;53.252;5.786;2023-05-10T02:14:41;1.27;;;1.00;;
55114;SDS011;41010;53.252;5.786;2023-05-10T02:17:09;1.13;;;0.80;;
55114;SDS011;41010;53.252;5.786;2023-05-10T02:19:38;0.55;;;0.55;;
55114;SDS011;41010;53.252;5.786;2023-05-10T02:22:06;0.70;;;0.57;;
55114;SDS011;41010;53.252;5.786;2023-05-10T02:24:34;0.82;;;0.70;;
55114;SDS011;41010;53.252;5.786;2023-05-10T02:27:02;0.93;;;0.80;;
55114;SDS011;41010;53.252;5.786;2023-05-10T02:29:30;0.77;;;0.75;;
55114;SDS011;41010;53.252;5.786;2023-05-10T02:31:58;1.20;;;1.00;;
55114;SDS011;41010;53.252;5.786;2023-05-10T02:34:26;1.00;;;0.90;;
55114;SDS011;41010;53.252;5.786;2023-05-10T02:36:55;0.98;;;0.82;;
55114;SDS011;41010;53.252;5.786;2023-05-10T02:39:23;1.00;;;0.90;;
55114;SDS011;41010;53.252;5.786;2023-05-10T02:41:51;1.27;;;0.85;;
55114;SDS011;41010;53.252;5.786;2023-05-10T02:44:20;0.60;;;0.60;;
55114;SDS011;41010;53.252;5.786;2023-05-10T02:46:48;1.20;;;0.80;;
55114;SDS011;41010;53.252;5.786;2023-05-10T02:49:16;1.05;;;0.80;;
55114;SDS011;41010;53.252;5.786;2023-05-10T02:51:47;1.00;;;0.70;;
55114;SDS011;41010;53.252;5.786;2023-05-10T02:54:18;1.25;;;0.80;;
55114;SDS011;41010;53.252;5.786;2023-05-10T02:56:47;0.70;;;0.70;;
55114;SDS011;41010;53.252;5.786;2023-05-10T02:59:14;1.35;;;0.90;;
55114;SDS011;41010;53.252;5.786;2023-05-10T03:01:42;1.30;;;0.90;;
55114;SDS011;41010;53.252;5.786;2023-05-10T03:04:09;1.33;;;0.90;;
55114;SDS011;41010;53.252;5.786;2023-05-10T03:06:36;1.63;;;0.90;;
55114;SDS011;41010;53.252;5.786;2023-05-10T03:09:03;1.10;;;0.90;;
55114;SDS011;41010;53.252;5.786;2023-05-10T03:11:39;1.27;;;0.95;;
55114;SDS011;41010;53.252;5.786;2023-05-10T03:14:13;1.10;;;1.00;;
55114;SDS011;41010;53.252;5.786;2023-05-10T03:16:44;1.95;;;1.50;;
55114;SDS011;41010;53.252;5.786;2023-05-10T03:19:15;3.10;;;1.70;;
55114;SDS011;41010;53.252;5.786;2023-05-10T03:21:44;4.50;;;1.75;;
55114;SDS011;41010;53.252;5.786;2023-05-10T03:24:14;3.97;;;2.10;;
55114;SDS011;41010;53.252;5.786;2023-05-10T03:26:43;4.03;;;2.60;;
55114;SDS011;41010;53.252;5.786;2023-05-10T03:29:11;3.63;;;2.65;;
55114;SDS011;41010;53.252;5.786;2023-05-10T03:31:38;3.53;;;2.88;;
55114;SDS011;41010;53.252;5.786;2023-05-10T03:34:05;4.13;;;2.90;;
55114;SDS011;41010;53.252;5.786;2023-05-10T03:36:33;3.20;;;2.75;;
55114;SDS011;41010;53.252;5.786;2023-05-10T03:39:00;3.03;;;2.55;;
55114;SDS011;41010;53.252;5.786;2023-05-10T03:41:27;4.22;;;2.55;;
55114;SDS011;41010;53.252;5.786;2023-05-10T03:43:56;3.55;;;2.50;;
55114;SDS011;41010;53.252;5.786;2023-05-10T03:46:23;2.88;;;2.55;;
55114;SDS011;41010;53.252;5.786;2023-05-10T03:48:51;3.00;;;2.55;;
55114;SDS011;41010;53.252;5.786;2023-05-10T03:51:18;3.80;;;2.53;;
55114;SDS011;41010;53.252;5.786;2023-05-10T03:53:45;4.75;;;2.90;;
55114;SDS011;41010;53.252;5.786;2023-05-10T03:56:12;4.45;;;3.08;;
55114;SDS011;41010;53.252;5.786;2023-05-10T03:58:40;4.40;;;3.25;;
55114;SDS011;41010;53.252;5.786;2023-05-10T04:01:08;4.18;;;2.85;;
55114;SDS011;41010;53.252;5.786;2023-05-10T04:03:36;2.83;;;2.28;;
55114;SDS011;41010;53.252;5.786;2023-05-10T04:06:04;2.28;;;1.63;;
55114;SDS011;41010;53.252;5.786;2023-05-10T04:08:33;1.38;;;1.20;;
55114;SDS011;41010;53.252;5.786;2023-05-10T04:11:06;1.50;;;1.10;;
55114;SDS011;41010;53.252;5.786;2023-05-10T04:13:34;0.80;;;0.63;;
55114;SDS011;41010;53.252;5.786;2023-05-10T04:16:01;0.93;;;0.80;;
55114;SDS011;41010;53.252;5.786;2023-05-10T04:18:30;0.70;;;0.70;;
55114;SDS011;41010;53.252;5.786;2023-05-10T04:20:57;0.80;;;0.70;;
55114;SDS011;41010;53.252;5.786;2023-05-10T04:23:25;0.80;;;0.73;;
55114;SDS011;41010;53.252;5.786;2023-05-10T04:25:52;1.10;;;1.00;;
55114;SDS011;41010;53.252;5.786;2023-05-10T04:28:19;1.35;;;1.00;;
55114;SDS011;41010;53.252;5.786;2023-05-10T04:30:47;2.17;;;1.25;;
55114;SDS011;41010;53.252;5.786;2023-05-10T04:33:14;1.80;;;1.52;;
55114;SDS011;41010;53.252;5.786;2023-05-10T04:35:42;2.58;;;1.98;;
55114;SDS011;41010;53.252;5.786;2023-05-10T04:38:10;2.10;;;1.88;;
55114;SDS011;41010;53.252;5.786;2023-05-10T04:40:37;2.75;;;2.17;;
55114;SDS011;41010;53.252;5.786;2023-05-10T04:43:05;3.65;;;3.03;;
55114;SDS011;41010;53.252;5.786;2023-05-10T04:45:32;4.93;;;3.50;;
55114;SDS011;41010;53.252;5.786;2023-05-10T04:47:59;6.13;;;3.95;;
55114;SDS011;41010;53.252;5.786;2023-05-10T04:50:26;9.52;;;5.53;;
55114;SDS011;41010;53.252;5.786;2023-05-10T04:52:55;8.98;;;5.95;;
55114;SDS011;41010;53.252;5.786;2023-05-10T04:55:22;8.27;;;6.10;;
55114;SDS011;41010;53.252;5.786;2023-05-10T04:57:49;7.72;;;4.90;;
55114;SDS011;41010;53.252;5.786;2023-05-10T05:00:17;9.77;;;6.07;;
55114;SDS011;41010;53.252;5.786;2023-05-10T05:02:44;7.75;;;4.10;;
55114;SDS011;41010;53.252;5.786;2023-05-10T05:05:11;4.72;;;3.63;;
55114;SDS011;41010;53.252;5.786;2023-05-10T05:07:39;4.72;;;3.30;;
55114;SDS011;41010;53.252;5.786;2023-05-10T05:10:08;4.72;;;3.50;;
55114;SDS011;41010;53.252;5.786;2023-05-10T05:12:35;3.90;;;2.72;;
55114;SDS011;41010;53.252;5.786;2023-05-10T05:15:03;4.03;;;2.85;;
55114;SDS011;41010;53.252;5.786;2023-05-10T05:17:30;4.93;;;3.25;;
55114;SDS011;41010;53.252;5.786;2023-05-10T05:19:57;4.25;;;2.72;;
55114;SDS011;41010;53.252;5.786;2023-05-10T05:22:24;4.07;;;2.80;;
55114;SDS011;41010;53.252;5.786;2023-05-10T05:24:53;4.07;;;3.00;;
55114;SDS011;41010;53.252;5.786;2023-05-10T05:27:21;4.85;;;2.38;;
55114;SDS011;41010;53.252;5.786;2023-05-10T05:29:52;7.82;;;2.70;;
55114;SDS011;41010;53.252;5.786;2023-05-10T05:32:19;5.75;;;2.40;;
55114;SDS011;41010;53.252;5.786;2023-05-10T05:34:46;3.28;;;2.30;;
55114;SDS011;41010;53.252;5.786;2023-05-10T05:37:14;4.22;;;1.88;;
55114;SDS011;41010;53.252;5.786;2023-05-10T05:39:41;3.80;;;2.10;;
55114;SDS011;41010;53.252;5.786;2023-05-10T05:42:09;4.32;;;2.08;;
55114;SDS011;41010;53.252;5.786;2023-05-10T05:44:38;3.08;;;1.98;;
55114;SDS011;41010;53.252;5.786;2023-05-10T05:47:05;4.22;;;2.33;;
55114;SDS011;41010;53.252;5.786;2023-05-10T05:49:33;3.50;;;2.20;;
55114;SDS011;41010;53.252;5.786;2023-05-10T05:52:00;3.53;;;2.30;;
55114;SDS011;41010;53.252;5.786;2023-05-10T05:54:28;3.83;;;2.22;;
55114;SDS011;41010;53.252;5.786;2023-05-10T05:56:55;2.80;;;1.70;;
55114;SDS011;41010;53.252;5.786;2023-05-10T05:59:23;3.17;;;1.92;;
55114;SDS011;41010;53.252;5.786;2023-05-10T06:01:52;3.55;;;1.90;;
55114;SDS011;41010;53.252;5.786;2023-05-10T06:04:19;2.25;;;1.40;;
55114;SDS011;41010;53.252;5.786;2023-05-10T06:06:46;1.83;;;1.25;;
55114;SDS011;41010;53.252;5.786;2023-05-10T06:09:13;2.10;;;1.23;;
55114;SDS011;41010;53.252;5.786;2023-05-10T06:11:41;2.08;;;1.20;;
55114;SDS011;41010;53.252;5.786;2023-05-10T06:14:08;1.77;;;1.10;;
55114;SDS011;41010;53.252;5.786;2023-05-10T06:16:35;4.43;;;1.20;;
55114;SDS011;41010;53.252;5.786;2023-05-10T06:19:04;2.17;;;1.40;;
55114;SDS011;41010;53.252;5.786;2023-05-10T06:21:31;2.13;;;1.40;;
55114;SDS011;41010;53.252;5.786;2023-05-10T06:23:58;2.33;;;1.33;;
55114;SDS011;41010;53.252;5.786;2023-05-10T06:26:25;1.60;;;1.10;;
55114;SDS011;41010;53.252;5.786;2023-05-10T06:28:53;2.25;;;1.40;;
55114;SDS011;41010;53.252;5.786;2023-05-10T06:31:20;1.85;;;1.00;;
55114;SDS011;41010;53.252;5.786;2023-05-10T06:33:47;1.65;;;1.08;;
55114;SDS011;41010;53.252;5.786;2023-05-10T06:36:16;4.43;;;1.30;;
55114;SDS011;41010;53.252;5.786;2023-05-10T06:38:43;1.45;;;1.00;;
55114;SDS011;41010;53.252;5.786;2023-05-10T06:41:10;3.88;;;1.65;;
55114;SDS011;41010;53.252;5.786;2023-05-10T06:43:40;2.90;;;1.65;;
55114;SDS011;41010;53.252;5.786;2023-05-10T06:46:08;2.65;;;1.60;;
55114;SDS011;41010;53.252;5.786;2023-05-10T06:48:35;2.03;;;1.17;;
55114;SDS011;41010;53.252;5.786;2023-05-10T06:51:02;2.00;;;1.35;;
55114;SDS011;41010;53.252;5.786;2023-05-10T06:53:31;3.83;;;1.33;;
55114;SDS011;41010;53.252;5.786;2023-05-10T06:55:58;2.90;;;1.30;;
55114;SDS011;41010;53.252;5.786;2023-05-10T06:58:26;2.10;;;1.27;;
55114;SDS011;41010;53.252;5.786;2023-05-10T07:00:53;2.17;;;1.20;;
55114;SDS011;41010;53.252;5.786;2023-05-10T07:03:20;4.10;;;1.38;;
55114;SDS011;41010;53.252;5.786;2023-05-10T07:05:48;3.00;;;1.17;;
55114;SDS011;41010;53.252;5.786;2023-05-10T07:08:15;1.48;;;1.00;;
55114;SDS011;41010;53.252;5.786;2023-05-10T07:10:44;1.40;;;1.00;;
55114;SDS011;41010;53.252;5.786;2023-05-10T07:13:11;2.00;;;1.20;;
55114;SDS011;41010;53.252;5.786;2023-05-10T07:15:39;1.60;;;1.15;;
55114;SDS011;41010;53.252;5.786;2023-05-10T07:18:06;2.72;;;1.73;;
55114;SDS011;41010;53.252;5.786;2023-05-10T07:20:33;3.83;;;1.80;;
55114;SDS011;41010;53.252;5.786;2023-05-10T07:23:00;3.22;;;1.95;;
55114;SDS011;41010;53.252;5.786;2023-05-10T07:25:28;3.60;;;1.80;;
55114;SDS011;41010;53.252;5.786;2023-05-10T07:27:56;3.83;;;1.90;;
55114;SDS011;41010;53.252;5.786;2023-05-10T07:30:23;2.58;;;1.63;;
55114;SDS011;41010;53.252;5.786;2023-05-10T07:32:51;4.32;;;2.15;;
55114;SDS011;41010;53.252;5.786;2023-05-10T07:35:18;2.83;;;1.88;;
55114;SDS011;41010;53.252;5.786;2023-05-10T07:37:45;4.68;;;2.63;;
55114;SDS011;41010;53.252;5.786;2023-05-10T07:40:12;4.53;;;2.28;;
55114;SDS011;41010;53.252;5.786;2023-05-10T07:42:40;4.45;;;2.70;;
55114;SDS011;41010;53.252;5.786;2023-05-10T07:45:09;5.18;;;2.53;;
55114;SDS011;41010;53.252;5.786;2023-05-10T07:47:36;4.28;;;2.60;;
55114;SDS011;41010;53.252;5.786;2023-05-10T07:50:04;4.40;;;2.70;;
55114;SDS011;41010;53.252;5.786;2023-05-10T07:52:31;5.55;;;3.05;;
55114;SDS011;41010;53.252;5.786;2023-05-10T07:54:58;4.88;;;2.75;;
55114;SDS011;41010;53.252;5.786;2023-05-10T07:57:26;4.85;;;2.53;;
55114;SDS011;41010;53.252;5.786;2023-05-10T07:59:53;5.18;;;2.85;;
55114;SDS011;41010;53.252;5.786;2023-05-10T08:02:22;3.78;;;2.10;;
55114;SDS011;41010;53.252;5.786;2023-05-10T08:04:49;4.63;;;1.77;;
55114;SDS011;41010;53.252;5.786;2023-05-10T08:07:16;4.05;;;1.95;;
55114;SDS011;41010;53.252;5.786;2023-05-10T08:09:44;6.18;;;3.35;;
55114;SDS011;41010;53.252;5.786;2023-05-10T08:12:11;4.03;;;1.98;;
55114;SDS011;41010;53.252;5.786;2023-05-10T08:14:38;3.47;;;1.88;;
55114;SDS011;41010;53.252;5.786;2023-05-10T08:17:05;2.75;;;1.73;;
55114;SDS011;41010;53.252;5.786;2023-05-10T08:19:34;2.92;;;2.10;;
55114;SDS011;41010;53.252;5.786;2023-05-10T08:22:01;3.28;;;2.10;;
55114;SDS011;41010;53.252;5.786;2023-05-10T08:24:28;2.40;;;1.67;;
55114;SDS011;41010;53.252;5.786;2023-05-10T08:26:56;2.58;;;1.52;;
55114;SDS011;41010;53.252;5.786;2023-05-10T08:29:23;2.88;;;1.50;;
55114;SDS011;41010;53.252;5.786;2023-05-10T08:31:50;2.42;;;1.63;;
55114;SDS011;41010;53.252;5.786;2023-05-10T08:34:18;3.63;;;2.20;;
55114;SDS011;41010;53.252;5.786;2023-05-10T08:36:46;2.47;;;1.95;;
55114;SDS011;41010;53.252;5.786;2023-05-10T08:39:13;4.00;;;1.80;;
55114;SDS011;41010;53.252;5.786;2023-05-10T08:41:41;4.60;;;2.65;;
55114;SDS011;41010;53.252;5.786;2023-05-10T08:44:10;6.68;;;3.83;;
55114;SDS011;41010;53.252;5.786;2023-05-10T08:46:38;5.75;;;3.47;;
55114;SDS011;41010;53.252;5.786;2023-05-10T08:49:09;4.50;;;3.08;;
55114;SDS011;41010;53.252;5.786;2023-05-10T08:51:40;5.25;;;3.10;;
55114;SDS011;41010;53.252;5.786;2023-05-10T08:54:12;5.97;;;3.40;;
55114;SDS011;41010;53.252;5.786;2023-05-10T08:56:40;7.03;;;4.53;;
55114;SDS011;41010;53.252;5.786;2023-05-10T08:59:07;5.78;;;4.03;;
55114;SDS011;41010;53.252;5.786;2023-05-10T09:01:35;5.72;;;4.07;;
55114;SDS011;41010;53.252;5.786;2023-05-10T09:04:02;6.35;;;3.85;;
55114;SDS011;41010;53.252;5.786;2023-05-10T09:06:29;10.07;;;4.22;;
55114;SDS011;41010;53.252;5.786;2023-05-10T09:08:57;8.35;;;4.20;;
55114;SDS011;41010;53.252;5.786;2023-05-10T09:11:26;6.05;;;4.22;;
55114;SDS011;41010;53.252;5.786;2023-05-10T09:13:55;6.53;;;4.53;;
55114;SDS011;41010;53.252;5.786;2023-05-10T09:16:22;7.15;;;4.07;;
55114;SDS011;41010;53.252;5.786;2023-05-10T09:18:50;6.57;;;4.43;;
55114;SDS011;41010;53.252;5.786;2023-05-10T09:21:18;5.90;;;4.15;;
55114;SDS011;41010;53.252;5.786;2023-05-10T09:23:46;5.82;;;3.88;;
55114;SDS011;41010;53.252;5.786;2023-05-10T09:26:15;5.25;;;4.10;;
55114;SDS011;41010;53.252;5.786;2023-05-10T09:28:54;6.93;;;3.90;;
55114;SDS011;41010;53.252;5.786;2023-05-10T09:31:21;7.45;;;4.00;;
55114;SDS011;41010;53.252;5.786;2023-05-10T09:33:50;6.47;;;3.65;;
55114;SDS011;41010;53.252;5.786;2023-05-10T09:36:17;7.47;;;3.50;;
55114;SDS011;41010;53.252;5.786;2023-05-10T09:38:45;6.40;;;3.70;;
55114;SDS011;41010;53.252;5.786;2023-05-10T09:41:16;4.95;;;3.28;;
55114;SDS011;41010;53.252;5.786;2023-05-10T09:43:44;7.28;;;3.78;;
55114;SDS011;41010;53.252;5.786;2023-05-10T09:46:12;5.88;;;3.90;;
55114;SDS011;41010;53.252;5.786;2023-05-10T09:48:41;5.50;;;3.42;;
55114;SDS011;41010;53.252;5.786;2023-05-10T09:51:09;4.43;;;3.40;;
55114;SDS011;41010;53.252;5.786;2023-05-10T09:53:36;6.63;;;3.83;;
55114;SDS011;41010;53.252;5.786;2023-05-10T09:56:03;6.57;;;3.35;;
55114;SDS011;41010;53.252;5.786;2023-05-10T09:58:31;6.20;;;3.60;;
55114;SDS011;41010;53.252;5.786;2023-05-10T10:00:58;5.55;;;3.80;;
55114;SDS011;41010;53.252;5.786;2023-05-10T10:03:27;4.93;;;3.20;;
55114;SDS011;41010;53.252;5.786;2023-05-10T10:05:56;5.57;;;3.47;;
55114;SDS011;41010;53.252;5.786;2023-05-10T10:08:23;7.20;;;3.67;;
55114;SDS011;41010;53.252;5.786;2023-05-10T10:10:51;7.32;;;3.80;;
55114;SDS011;41010;53.252;5.786;2023-05-10T10:13:18;7.25;;;3.97;;
55114;SDS011;41010;53.252;5.786;2023-05-10T10:15:46;7.95;;;4.43;;
55114;SDS011;41010;53.252;5.786;2023-05-10T10:18:16;7.28;;;4.30;;
55114;SDS011;41010;53.252;5.786;2023-05-10T10:20:44;7.82;;;4.15;;
55114;SDS011;41010;53.252;5.786;2023-05-10T10:23:12;7.57;;;4.05;;
55114;SDS011;41010;53.252;5.786;2023-05-10T10:25:39;6.80;;;4.03;;
55114;SDS011;41010;53.252;5.786;2023-05-10T10:28:13;6.30;;;4.00;;
55114;SDS011;41010;53.252;5.786;2023-05-10T10:30:43;5.55;;;4.05;;
55114;SDS011;41010;53.252;5.786;2023-05-10T10:33:15;7.68;;;4.00;;
55114;SDS011;41010;53.252;5.786;2023-05-10T10:35:46;6.03;;;3.70;;
55114;SDS011;41010;53.252;5.786;2023-05-10T10:38:13;4.20;;;3.30;;
55114;SDS011;41010;53.252;5.786;2023-05-10T10:40:41;5.13;;;3.70;;
55114;SDS011;41010;53.252;5.786;2023-05-10T10:43:21;5.57;;;3.58;;
55114;SDS011;41010;53.252;5.786;2023-05-10T10:48:31;5.30;;;3.28;;
55114;SDS011;41010;53.252;5.786;2023-05-10T10:51:00;4.15;;;2.97;;
55114;SDS011;41010;53.252;5.786;2023-05-10T10:53:27;3.63;;;2.80;;
55114;SDS011;41010;53.252;5.786;2023-05-10T10:56:02;3.80;;;2.92;;
55114;SDS011;41010;53.252;5.786;2023-05-10T10:58:32;5.32;;;3.50;;
55114;SDS011;41010;53.252;5.786;2023-05-10T11:01:13;4.22;;;3.40;;
55114;SDS011;41010;53.252;5.786;2023-05-10T11:03:41;5.40;;;3.53;;
55114;SDS011;41010;53.252;5.786;2023-05-10T11:06:29;6.03;;;3.58;;
55114;SDS011;41010;53.252;5.786;2023-05-10T11:08:58;4.53;;;3.38;;
55114;SDS011;41010;53.252;5.786;2023-05-10T11:11:26;5.88;;;3.15;;
55114;SDS011;41010;53.252;5.786;2023-05-10T11:13:53;4.57;;;2.97;;
55114;SDS011;41010;53.252;5.786;2023-05-10T11:16:22;5.72;;;3.42;;
55114;SDS011;41010;53.252;5.786;2023-05-10T11:18:59;4.30;;;3.33;;
55114;SDS011;41010;53.252;5.786;2023-05-10T11:21:28;4.57;;;3.40;;
55114;SDS011;41010;53.252;5.786;2023-05-10T11:23:57;5.45;;;3.47;;
55114;SDS011;41010;53.252;5.786;2023-05-10T11:26:24;5.32;;;3.67;;
55114;SDS011;41010;53.252;5.786;2023-05-10T11:28:52;5.55;;;3.75;;
55114;SDS011;41010;53.252;5.786;2023-05-10T11:31:21;5.63;;;4.28;;
55114;SDS011;41010;53.252;5.786;2023-05-10T11:33:52;4.30;;;3.30;;
55114;SDS011;41010;53.252;5.786;2023-05-10T11:36:19;5.22;;;3.65;;
55114;SDS011;41010;53.252;5.786;2023-05-10T11:38:47;5.75;;;3.90;;
55114;SDS011;41010;53.252;5.786;2023-05-10T11:41:17;7.03;;;4.82;;
55114;SDS011;41010;53.252;5.786;2023-05-10T11:43:46;7.70;;;4.60;;
55114;SDS011;41010;53.252;5.786;2023-05-10T11:46:16;7.15;;;4.90;;
55114;SDS011;41010;53.252;5.786;2023-05-10T11:48:45;7.88;;;4.70;;
55114;SDS011;41010;53.252;5.786;2023-05-10T11:51:13;7.10;;;4.57;;
55114;SDS011;41010;53.252;5.786;2023-05-10T11:53:41;6.85;;;4.20;;
55114;SDS011;41010;53.252;5.786;2023-05-10T11:56:08;5.55;;;4.25;;
55114;SDS011;41010;53.252;5.786;2023-05-10T11:58:37;5.45;;;4.00;;
55114;SDS011;41010;53.252;5.786;2023-05-10T12:01:06;5.50;;;3.47;;
55114;SDS011;41010;53.252;5.786;2023-05-10T12:03:34;5.35;;;3.70;;
55114;SDS011;41010;53.252;5.786;2023-05-10T12:06:02;9.35;;;4.82;;
55114;SDS011;41010;53.252;5.786;2023-05-10T12:08:29;7.00;;;4.65;;
55114;SDS011;41010;53.252;5.786;2023-05-10T12:11:04;7.25;;;3.88;;
55114;SDS011;41010;53.252;5.786;2023-05-10T12:13:31;5.38;;;3.88;;
55114;SDS011;41010;53.252;5.786;2023-05-10T12:16:00;5.20;;;3.47;;
55114;SDS011;41010;53.252;5.786;2023-05-10T12:18:39;4.28;;;3.28;;
55114;SDS011;41010;53.252;5.786;2023-05-10T12:21:06;6.80;;;3.72;;
55114;SDS011;41010;53.252;5.786;2023-05-10T12:23:34;5.20;;;3.85;;
55114;SDS011;41010;53.252;5.786;2023-05-10T12:26:01;6.13;;;3.95;;
55114;SDS011;41010;53.252;5.786;2023-05-10T12:28:29;4.88;;;3.60;;
55114;SDS011;41010;53.252;5.786;2023-05-10T12:30:57;4.70;;;3.42;;
55114;SDS011;41010;53.252;5.786;2023-05-10T12:33:25;5.82;;;3.45;;
55114;SDS011;41010;53.252;5.786;2023-05-10T12:35:53;5.28;;;3.63;;
55114;SDS011;41010;53.252;5.786;2023-05-10T12:38:28;6.20;;;3.60;;
55114;SDS011;41010;53.252;5.786;2023-05-10T12:40:56;5.82;;;3.53;;
55114;SDS011;41010;53.252;5.786;2023-05-10T12:43:23;6.32;;;3.92;;
55114;SDS011;41010;53.252;5.786;2023-05-10T12:45:50;5.00;;;3.47;;
55114;SDS011;41010;53.252;5.786;2023-05-10T12:48:17;5.30;;;3.92;;
55114;SDS011;41010;53.252;5.786;2023-05-10T12:50:46;4.68;;;3.50;;
55114;SDS011;41010;53.252;5.786;2023-05-10T12:53:14;5.40;;;3.85;;
55114;SDS011;41010;53.252;5.786;2023-05-10T12:55:41;5.00;;;3.47;;
55114;SDS011;41010;53.252;5.786;2023-05-10T12:58:08;5.07;;;3.78;;
55114;SDS011;41010;53.252;5.786;2023-05-10T13:00:36;5.88;;;4.20;;
55114;SDS011;41010;53.252;5.786;2023-05-10T13:03:04;6.68;;;4.72;;
55114;SDS011;41010;53.252;5.786;2023-05-10T13:05:31;5.82;;;4.75;;
55114;SDS011;41010;53.252;5.786;2023-05-10T13:08:00;6.72;;;4.50;;
55114;SDS011;41010;53.252;5.786;2023-05-10T13:10:28;5.28;;;4.20;;
55114;SDS011;41010;53.252;5.786;2023-05-10T13:12:56;5.13;;;3.55;;
55114;SDS011;41010;53.252;5.786;2023-05-10T13:15:24;5.93;;;4.57;;
55114;SDS011;41010;53.252;5.786;2023-05-10T13:17:51;5.75;;;4.25;;
55114;SDS011;41010;53.252;5.786;2023-05-10T13:20:18;5.18;;;3.70;;
55114;SDS011;41010;53.252;5.786;2023-05-10T13:22:46;4.35;;;3.60;;
55114;SDS011;41010;53.252;5.786;2023-05-10T13:25:14;3.92;;;2.85;;
55114;SDS011;41010;53.252;5.786;2023-05-10T13:27:41;3.42;;;3.00;;
55114;SDS011;41010;53.252;5.786;2023-05-10T13:30:09;3.13;;;2.75;;
55114;SDS011;41010;53.252;5.786;2023-05-10T13:32:37;2.60;;;2.28;;
55114;SDS011;41010;53.252;5.786;2023-05-10T13:35:05;2.67;;;1.95;;
55114;SDS011;41010;53.252;5.786;2023-05-10T13:37:32;2.38;;;1.75;;
55114;SDS011;41010;53.252;5.786;2023-05-10T13:40:02;2.40;;;2.00;;
55114;SDS011;41010;53.252;5.786;2023-05-10T13:42:31;2.55;;;2.00;;
55114;SDS011;41010;53.252;5.786;2023-05-10T13:44:59;2.60;;;2.10;;
55114;SDS011;41010;53.252;5.786;2023-05-10T13:47:26;2.83;;;2.33;;
55114;SDS011;41010;53.252;5.786;2023-05-10T13:49:54;2.50;;;2.20;;
55114;SDS011;41010;53.252;5.786;2023-05-10T13:52:22;2.20;;;1.90;;
55114;SDS011;41010;53.252;5.786;2023-05-10T13:54:49;2.28;;;1.90;;
55114;SDS011;41010;53.252;5.786;2023-05-10T13:57:19;2.53;;;2.10;;
55114;SDS011;41010;53.252;5.786;2023-05-10T13:59:48;2.58;;;2.20;;
55114;SDS011;41010;53.252;5.786;2023-05-10T14:02:15;3.42;;;2.30;;
55114;SDS011;41010;53.252;5.786;2023-05-10T14:04:42;2.25;;;2.05;;
55114;SDS011;41010;53.252;5.786;2023-05-10T14:07:10;2.25;;;1.83;;
55114;SDS011;41010;53.252;5.786;2023-05-10T14:09:37;2.35;;;2.15;;
55114;SDS011;41010;53.252;5.786;2023-05-10T14:12:04;2.83;;;2.10;;
55114;SDS011;41010;53.252;5.786;2023-05-10T14:14:31;1.25;;;1.15;;
55114;SDS011;41010;53.252;5.786;2023-05-10T14:17:00;2.08;;;1.88;;
55114;SDS011;41010;53.252;5.786;2023-05-10T14:19:27;2.28;;;1.77;;
55114;SDS011;41010;53.252;5.786;2023-05-10T14:21:57;1.83;;;1.67;;
55114;SDS011;41010;53.252;5.786;2023-05-10T14:24:24;2.63;;;2.05;;
55114;SDS011;41010;53.252;5.786;2023-05-10T14:26:51;2.55;;;2.10;;
55114;SDS011;41010;53.252;5.786;2023-05-10T14:29:19;2.53;;;1.90;;
55114;SDS011;41010;53.252;5.786;2023-05-10T14:31:46;2.13;;;1.92;;
55114;SDS011;41010;53.252;5.786;2023-05-10T14:34:15;2.45;;;1.80;;
55114;SDS011;41010;53.252;5.786;2023-05-10T14:36:42;2.70;;;1.90;;
55114;SDS011;41010;53.252;5.786;2023-05-10T14:39:09;1.40;;;1.30;;
55114;SDS011;41010;53.252;5.786;2023-05-10T14:41:37;2.00;;;1.40;;
55114;SDS011;41010;53.252;5.786;2023-05-10T14:44:08;2.03;;;1.67;;
55114;SDS011;41010;53.252;5.786;2023-05-10T14:46:35;2.47;;;1.63;;
55114;SDS011;41010;53.252;5.786;2023-05-10T14:49:02;2.10;;;1.45;;
55114;SDS011;41010;53.252;5.786;2023-05-10T14:51:31;1.88;;;1.60;;
55114;SDS011;41010;53.252;5.786;2023-05-10T14:53:58;1.48;;;1.38;;
55114;SDS011;41010;53.252;5.786;2023-05-10T14:56:25;2.20;;;1.50;;